sensor_id;sensor_type;location;lat;lon;timestamp;pressure;altitude;pressure_sealevel;temperature;humidity
77454;BME280;66538;53.150;18.160;2023-12-07T00:01:52;101795.29;;;-1.42;99.98
77454;BME280;66538;53.150;18.160;2023-12-07T00:04:18;101793.83;;;-1.43;99.96
77454;BME280;66538;53.150;18.160;2023-12-07T00:06:45;101796.19;;;-1.43;99.92
77454;BME280;66538;53.150;18.160;2023-12-07T00:09:11;101797.92;;;-1.43;99.98
77454;BME280;66538;53.150;18.160;2023-12-07T00:11:38;101802.02;;;-1.44;99.92
77454;BME280;66538;53.150;18.160;2023-12-07T00:14:05;101803.67;;;-1.43;99.96
77454;BME280;66538;53.150;18.160;2023-12-07T00:16:31;101805.98;;;-1.45;99.94
77454;BME280;66538;53.150;18.160;2023-12-07T00:18:58;101804.39;;;-1.45;99.97
77454;BME280;66538;53.150;18.160;2023-12-07T00:21:24;101807.96;;;-1.44;100.00
77454;BME280;66538;53.150;18.160;2023-12-07T00:23:51;101806.10;;;-1.45;100.00
77454;BME280;66538;53.150;18.160;2023-12-07T00:26:18;101807.01;;;-1.45;99.97
77454;BME280;66538;53.150;18.160;2023-12-07T00:28:45;101807.84;;;-1.44;100.00
77454;BME280;66538;53.150;18.160;2023-12-07T00:31:12;101807.56;;;-1.45;100.00
77454;BME280;66538;53.150;18.160;2023-12-07T00:33:39;101808.86;;;-1.44;100.00
77454;BME280;66538;53.150;18.160;2023-12-07T00:36:06;101807.34;;;-1.43;100.00
77454;BME280;66538;53.150;18.160;2023-12-07T00:38:33;101807.54;;;-1.43;99.99
77454;BME280;66538;53.150;18.160;2023-12-07T00:40:59;101808.64;;;-1.43;99.96
77454;BME280;66538;53.150;18.160;2023-12-07T00:43:26;101807.39;;;-1.42;100.00
77454;BME280;66538;53.150;18.160;2023-12-07T00:45:52;101811.11;;;-1.40;100.00
77454;BME280;66538;53.150;18.160;2023-12-07T00:48:19;101811.04;;;-1.39;100.00
77454;BME280;66538;53.150;18.160;2023-12-07T00:50:46;101812.15;;;-1.39;99.98
77454;BME280;66538;53.150;18.160;2023-12-07T00:53:13;101811.98;;;-1.40;99.98
77454;BME280;66538;53.150;18.160;2023-12-07T00:55:40;101812.44;;;-1.41;100.00
77454;BME280;66538;53.150;18.160;2023-12-07T00:58:07;101813.70;;;-1.39;100.00
77454;BME280;66538;53.150;18.160;2023-12-07T01:00:33;101816.94;;;-1.38;99.95
77454;BME280;66538;53.150;18.160;2023-12-07T01:03:00;101817.20;;;-1.37;100.00
77454;BME280;66538;53.150;18.160;2023-12-07T01:05:26;101817.30;;;-1.38;99.98
77454;BME280;66538;53.150;18.160;2023-12-07T01:07:53;101823.02;;;-1.37;99.94
77454;BME280;66538;53.150;18.160;2023-12-07T01:10:20;101823.93;;;-1.37;100.00
77454;BME280;66538;53.150;18.160;2023-12-07T01:12:46;101828.23;;;-1.36;99.93
77454;BME280;66538;53.150;18.160;2023-12-07T01:15:13;101828.63;;;-1.36;100.00
77454;BME280;66538;53.150;18.160;2023-12-07T01:17:39;101827.59;;;-1.36;99.99
77454;BME280;66538;53.150;18.160;2023-12-07T01:20:06;101830.98;;;-1.35;99.95
77454;BME280;66538;53.150;18.160;2023-12-07T01:22:42;101835.02;;;-1.35;100.00
77454;BME280;66538;53.150;18.160;2023-12-07T01:25:09;101836.81;;;-1.33;100.00
77454;BME280;66538;53.150;18.160;2023-12-07T01:27:35;101839.85;;;-1.32;99.94
77454;BME280;66538;53.150;18.160;2023-12-07T01:30:03;101837.16;;;-1.33;100.00
77454;BME280;66538;53.150;18.160;2023-12-07T01:32:30;101838.02;;;-1.33;100.00
77454;BME280;66538;53.150;18.160;2023-12-07T01:34:57;101838.73;;;-1.33;100.00
77454;BME280;66538;53.150;18.160;2023-12-07T01:37:23;101834.75;;;-1.32;100.00
77454;BME280;66538;53.150;18.160;2023-12-07T01:39:50;101838.48;;;-1.31;99.99
77454;BME280;66538;53.150;18.160;2023-12-07T01:42:16;101835.98;;;-1.31;100.00
77454;BME280;66538;53.150;18.160;2023-12-07T01:44:43;101831.16;;;-1.30;100.00
77454;BME280;66538;53.150;18.160;2023-12-07T01:47:10;101828.86;;;-1.30;100.00
77454;BME280;66538;53.150;18.160;2023-12-07T01:49:37;101829.25;;;-1.31;100.00
77454;BME280;66538;53.150;18.160;2023-12-07T01:52:04;101829.52;;;-1.30;100.00
77454;BME280;66538;53.150;18.160;2023-12-07T01:54:32;101832.02;;;-1.30;99.96
77454;BME280;66538;53.150;18.160;2023-12-07T01:56:59;101832.42;;;-1.30;100.00
77454;BME280;66538;53.150;18.160;2023-12-07T01:59:26;101834.79;;;-1.29;99.99
77454;BME280;66538;53.150;18.160;2023-12-07T02:01:52;101838.52;;;-1.29;99.99
77454;BME280;66538;53.150;18.160;2023-12-07T02:04:19;101837.78;;;-1.29;100.00
77454;BME280;66538;53.150;18.160;2023-12-07T02:06:45;101837.71;;;-1.28;100.00
77454;BME280;66538;53.150;18.160;2023-12-07T02:09:12;101840.19;;;-1.28;99.96
77454;BME280;66538;53.150;18.160;2023-12-07T02:11:39;101838.28;;;-1.27;100.00
77454;BME280;66538;53.150;18.160;2023-12-07T02:14:05;101839.31;;;-1.27;100.00
77454;BME280;66538;53.150;18.160;2023-12-07T02:16:54;101837.89;;;-1.27;100.00
77454;BME280;66538;53.150;18.160;2023-12-07T02:19:55;101843.08;;;-1.27;100.00
77454;BME280;66538;53.150;18.160;2023-12-07T02:22:44;101845.52;;;-1.27;100.00
77454;BME280;66538;53.150;18.160;2023-12-07T02:25:14;101844.64;;;-1.27;100.00
77454;BME280;66538;53.150;18.160;2023-12-07T02:27:44;101845.64;;;-1.28;99.99
77454;BME280;66538;53.150;18.160;2023-12-07T02:30:15;101850.58;;;-1.27;100.00
77454;BME280;66538;53.150;18.160;2023-12-07T02:32:44;101846.91;;;-1.28;100.00
77454;BME280;66538;53.150;18.160;2023-12-07T02:35:12;101848.75;;;-1.29;100.00
77454;BME280;66538;53.150;18.160;2023-12-07T02:37:49;101846.08;;;-1.29;100.00
77454;BME280;66538;53.150;18.160;2023-12-07T02:40:24;101847.31;;;-1.30;100.00
77454;BME280;66538;53.150;18.160;2023-12-07T02:42:52;101849.23;;;-1.30;100.00
77454;BME280;66538;53.150;18.160;2023-12-07T02:45:19;101849.04;;;-1.31;100.00
77454;BME280;66538;53.150;18.160;2023-12-07T02:47:46;101849.30;;;-1.32;100.00
77454;BME280;66538;53.150;18.160;2023-12-07T02:50:13;101846.94;;;-1.33;100.00
77454;BME280;66538;53.150;18.160;2023-12-07T02:52:40;101845.66;;;-1.35;99.99
77454;BME280;66538;53.150;18.160;2023-12-07T02:55:07;101851.02;;;-1.36;100.00
77454;BME280;66538;53.150;18.160;2023-12-07T02:57:35;101853.82;;;-1.38;100.00
77454;BME280;66538;53.150;18.160;2023-12-07T03:00:03;101857.29;;;-1.38;100.00
77454;BME280;66538;53.150;18.160;2023-12-07T03:02:37;101856.34;;;-1.43;100.00
77454;BME280;66538;53.150;18.160;2023-12-07T03:05:05;101855.23;;;-1.46;100.00
77454;BME280;66538;53.150;18.160;2023-12-07T03:07:33;101854.92;;;-1.51;100.00
77454;BME280;66538;53.150;18.160;2023-12-07T03:10:00;101853.98;;;-1.55;100.00
77454;BME280;66538;53.150;18.160;2023-12-07T03:12:27;101856.13;;;-1.60;100.00
77454;BME280;66538;53.150;18.160;2023-12-07T03:14:53;101856.88;;;-1.66;100.00
77454;BME280;66538;53.150;18.160;2023-12-07T03:17:20;101858.02;;;-1.71;100.00
77454;BME280;66538;53.150;18.160;2023-12-07T03:19:47;101860.97;;;-1.76;100.00
77454;BME280;66538;53.150;18.160;2023-12-07T03:22:13;101856.59;;;-1.81;100.00
77454;BME280;66538;53.150;18.160;2023-12-07T03:24:44;101857.46;;;-1.88;100.00
77454;BME280;66538;53.150;18.160;2023-12-07T03:27:11;101859.71;;;-1.92;100.00
77454;BME280;66538;53.150;18.160;2023-12-07T03:29:38;101855.70;;;-1.98;100.00
77454;BME280;66538;53.150;18.160;2023-12-07T03:32:05;101855.21;;;-2.02;100.00
77454;BME280;66538;53.150;18.160;2023-12-07T03:34:31;101856.63;;;-2.05;100.00
77454;BME280;66538;53.150;18.160;2023-12-07T03:36:58;101852.00;;;-2.08;100.00
77454;BME280;66538;53.150;18.160;2023-12-07T03:39:24;101848.81;;;-2.12;100.00
77454;BME280;66538;53.150;18.160;2023-12-07T03:41:52;101849.63;;;-2.14;100.00
77454;BME280;66538;53.150;18.160;2023-12-07T03:44:19;101850.16;;;-2.16;100.00
77454;BME280;66538;53.150;18.160;2023-12-07T03:46:45;101848.80;;;-2.20;100.00
77454;BME280;66538;53.150;18.160;2023-12-07T03:49:12;101846.60;;;-2.24;100.00
77454;BME280;66538;53.150;18.160;2023-12-07T03:51:39;101856.83;;;-2.25;100.00
77454;BME280;66538;53.150;18.160;2023-12-07T03:54:05;101860.27;;;-2.29;100.00
77454;BME280;66538;53.150;18.160;2023-12-07T03:56:34;101860.89;;;-2.32;100.00
77454;BME280;66538;53.150;18.160;2023-12-07T03:59:01;101863.90;;;-2.34;100.00
77454;BME280;66538;53.150;18.160;2023-12-07T04:01:29;101865.80;;;-2.36;100.00
77454;BME280;66538;53.150;18.160;2023-12-07T04:03:56;101866.13;;;-2.39;100.00
77454;BME280;66538;53.150;18.160;2023-12-07T04:06:24;101866.08;;;-2.41;100.00
77454;BME280;66538;53.150;18.160;2023-12-07T04:08:51;101864.11;;;-2.42;100.00
77454;BME280;66538;53.150;18.160;2023-12-07T04:11:18;101870.21;;;-2.43;100.00
77454;BME280;66538;53.150;18.160;2023-12-07T04:13:45;101869.79;;;-2.44;100.00
77454;BME280;66538;53.150;18.160;2023-12-07T04:16:12;101870.71;;;-2.43;100.00
77454;BME280;66538;53.150;18.160;2023-12-07T04:18:38;101875.39;;;-2.40;100.00
77454;BME280;66538;53.150;18.160;2023-12-07T04:21:05;101879.06;;;-2.38;100.00
77454;BME280;66538;53.150;18.160;2023-12-07T04:23:32;101881.67;;;-2.34;100.00
77454;BME280;66538;53.150;18.160;2023-12-07T04:25:59;101888.27;;;-2.29;100.00
77454;BME280;66538;53.150;18.160;2023-12-07T04:28:26;101886.51;;;-2.26;100.00
77454;BME280;66538;53.150;18.160;2023-12-07T04:30:52;101883.58;;;-2.22;100.00
77454;BME280;66538;53.150;18.160;2023-12-07T04:33:19;101889.71;;;-2.18;100.00
77454;BME280;66538;53.150;18.160;2023-12-07T04:35:45;101891.41;;;-2.14;100.00
77454;BME280;66538;53.150;18.160;2023-12-07T04:38:12;101897.64;;;-2.10;100.00
77454;BME280;66538;53.150;18.160;2023-12-07T04:40:39;101899.81;;;-2.07;100.00
77454;BME280;66538;53.150;18.160;2023-12-07T04:43:05;101900.58;;;-2.03;100.00
77454;BME280;66538;53.150;18.160;2023-12-07T04:45:32;101898.48;;;-2.00;100.00
77454;BME280;66538;53.150;18.160;2023-12-07T04:47:58;101898.15;;;-1.97;100.00
77454;BME280;66538;53.150;18.160;2023-12-07T04:50:26;101896.05;;;-1.94;100.00
77454;BME280;66538;53.150;18.160;2023-12-07T04:52:53;101896.66;;;-1.90;100.00
77454;BME280;66538;53.150;18.160;2023-12-07T04:55:21;101899.39;;;-1.87;100.00
77454;BME280;66538;53.150;18.160;2023-12-07T04:57:47;101892.67;;;-1.85;100.00
77454;BME280;66538;53.150;18.160;2023-12-07T05:00:14;101890.70;;;-1.82;100.00
77454;BME280;66538;53.150;18.160;2023-12-07T05:02:41;101890.67;;;-1.78;100.00
77454;BME280;66538;53.150;18.160;2023-12-07T05:05:07;101888.09;;;-1.76;100.00
77454;BME280;66538;53.150;18.160;2023-12-07T05:07:35;101888.23;;;-1.72;100.00
77454;BME280;66538;53.150;18.160;2023-12-07T05:10:02;101886.61;;;-1.70;100.00
77454;BME280;66538;53.150;18.160;2023-12-07T05:12:29;101891.38;;;-1.66;100.00
77454;BME280;66538;53.150;18.160;2023-12-07T05:14:55;101892.83;;;-1.65;100.00
77454;BME280;66538;53.150;18.160;2023-12-07T05:17:22;101902.58;;;-1.62;100.00
77454;BME280;66538;53.150;18.160;2023-12-07T05:19:49;101906.23;;;-1.59;100.00
77454;BME280;66538;53.150;18.160;2023-12-07T05:22:15;101905.88;;;-1.58;100.00
77454;BME280;66538;53.150;18.160;2023-12-07T05:24:42;101903.96;;;-1.55;100.00
77454;BME280;66538;53.150;18.160;2023-12-07T05:27:09;101906.08;;;-1.53;100.00
77454;BME280;66538;53.150;18.160;2023-12-07T05:29:35;101907.56;;;-1.52;100.00
77454;BME280;66538;53.150;18.160;2023-12-07T05:32:02;101907.14;;;-1.50;100.00
77454;BME280;66538;53.150;18.160;2023-12-07T05:34:30;101906.21;;;-1.48;100.00
77454;BME280;66538;53.150;18.160;2023-12-07T05:36:56;101901.30;;;-1.47;100.00
77454;BME280;66538;53.150;18.160;2023-12-07T05:39:23;101906.06;;;-1.45;100.00
77454;BME280;66538;53.150;18.160;2023-12-07T05:41:50;101906.20;;;-1.43;100.00
77454;BME280;66538;53.150;18.160;2023-12-07T05:44:16;101905.84;;;-1.41;100.00
77454;BME280;66538;53.150;18.160;2023-12-07T05:46:48;101910.34;;;-1.38;100.00
77454;BME280;66538;53.150;18.160;2023-12-07T05:49:15;101914.44;;;-1.35;100.00
77454;BME280;66538;53.150;18.160;2023-12-07T05:51:42;101912.76;;;-1.33;100.00
77454;BME280;66538;53.150;18.160;2023-12-07T05:54:08;101909.06;;;-1.31;100.00
77454;BME280;66538;53.150;18.160;2023-12-07T05:56:35;101915.42;;;-1.26;100.00
77454;BME280;66538;53.150;18.160;2023-12-07T05:59:01;101910.71;;;-1.25;100.00
77454;BME280;66538;53.150;18.160;2023-12-07T06:01:28;101911.27;;;-1.22;100.00
77454;BME280;66538;53.150;18.160;2023-12-07T06:03:55;101909.81;;;-1.20;100.00
77454;BME280;66538;53.150;18.160;2023-12-07T06:06:21;101913.05;;;-1.17;100.00
77454;BME280;66538;53.150;18.160;2023-12-07T06:08:48;101919.02;;;-1.15;100.00
77454;BME280;66538;53.150;18.160;2023-12-07T06:11:14;101920.02;;;-1.13;100.00
77454;BME280;66538;53.150;18.160;2023-12-07T06:13:41;101922.30;;;-1.11;100.00
77454;BME280;66538;53.150;18.160;2023-12-07T06:16:11;101925.02;;;-1.08;100.00
77454;BME280;66538;53.150;18.160;2023-12-07T06:18:38;101930.92;;;-1.07;100.00
77454;BME280;66538;53.150;18.160;2023-12-07T06:21:05;101931.95;;;-1.05;100.00
77454;BME280;66538;53.150;18.160;2023-12-07T06:23:32;101935.46;;;-1.03;100.00
77454;BME280;66538;53.150;18.160;2023-12-07T06:26:01;101940.19;;;-1.01;100.00
77454;BME280;66538;53.150;18.160;2023-12-07T06:28:28;101941.73;;;-1.00;100.00
77454;BME280;66538;53.150;18.160;2023-12-07T06:30:55;101945.73;;;-0.99;100.00
77454;BME280;66538;53.150;18.160;2023-12-07T06:33:23;101950.45;;;-0.99;100.00
77454;BME280;66538;53.150;18.160;2023-12-07T06:35:50;101954.95;;;-0.98;100.00
77454;BME280;66538;53.150;18.160;2023-12-07T06:38:16;101958.36;;;-0.96;100.00
77454;BME280;66538;53.150;18.160;2023-12-07T06:40:43;101962.16;;;-0.95;100.00
77454;BME280;66538;53.150;18.160;2023-12-07T06:43:10;101963.89;;;-0.93;100.00
77454;BME280;66538;53.150;18.160;2023-12-07T06:45:36;101960.20;;;-0.92;100.00
77454;BME280;66538;53.150;18.160;2023-12-07T06:48:03;101965.02;;;-0.89;100.00
77454;BME280;66538;53.150;18.160;2023-12-07T06:50:30;101962.33;;;-0.89;100.00
77454;BME280;66538;53.150;18.160;2023-12-07T06:52:57;101961.45;;;-0.87;100.00
77454;BME280;66538;53.150;18.160;2023-12-07T06:55:23;101964.70;;;-0.85;100.00
77454;BME280;66538;53.150;18.160;2023-12-07T06:57:50;101964.64;;;-0.84;100.00
77454;BME280;66538;53.150;18.160;2023-12-07T07:00:17;101967.94;;;-0.83;100.00
77454;BME280;66538;53.150;18.160;2023-12-07T07:02:44;101972.52;;;-0.81;100.00
77454;BME280;66538;53.150;18.160;2023-12-07T07:05:12;101974.88;;;-0.78;100.00
77454;BME280;66538;53.150;18.160;2023-12-07T07:07:38;101970.52;;;-0.78;100.00
77454;BME280;66538;53.150;18.160;2023-12-07T07:10:05;101972.52;;;-0.75;100.00
77454;BME280;66538;53.150;18.160;2023-12-07T07:12:32;101975.70;;;-0.73;100.00
77454;BME280;66538;53.150;18.160;2023-12-07T07:14:58;101973.55;;;-0.71;100.00
77454;BME280;66538;53.150;18.160;2023-12-07T07:17:25;101979.69;;;-0.69;100.00
77454;BME280;66538;53.150;18.160;2023-12-07T07:19:52;101977.66;;;-0.67;100.00
77454;BME280;66538;53.150;18.160;2023-12-07T07:22:18;101980.46;;;-0.63;100.00
77454;BME280;66538;53.150;18.160;2023-12-07T07:24:45;101980.29;;;-0.60;100.00
77454;BME280;66538;53.150;18.160;2023-12-07T07:27:11;101981.13;;;-0.56;100.00
77454;BME280;66538;53.150;18.160;2023-12-07T07:29:38;101979.46;;;-0.52;100.00
77454;BME280;66538;53.150;18.160;2023-12-07T07:32:05;101977.45;;;-0.47;100.00
77454;BME280;66538;53.150;18.160;2023-12-07T07:34:32;101979.39;;;-0.42;100.00
77454;BME280;66538;53.150;18.160;2023-12-07T07:36:58;101974.04;;;-0.37;100.00
77454;BME280;66538;53.150;18.160;2023-12-07T07:39:25;101973.63;;;-0.32;100.00
77454;BME280;66538;53.150;18.160;2023-12-07T07:41:51;101975.59;;;-0.27;100.00
77454;BME280;66538;53.150;18.160;2023-12-07T07:44:18;101979.00;;;-0.21;100.00
77454;BME280;66538;53.150;18.160;2023-12-07T07:46:45;101983.54;;;-0.17;100.00
77454;BME280;66538;53.150;18.160;2023-12-07T07:49:12;101985.65;;;-0.12;100.00
77454;BME280;66538;53.150;18.160;2023-12-07T07:51:39;101981.02;;;-0.09;100.00
77454;BME280;66538;53.150;18.160;2023-12-07T07:54:05;101984.08;;;-0.03;100.00
77454;BME280;66538;53.150;18.160;2023-12-07T07:56:32;101984.44;;;0.04;100.00
77454;BME280;66538;53.150;18.160;2023-12-07T07:58:58;101986.42;;;0.10;100.00
77454;BME280;66538;53.150;18.160;2023-12-07T08:01:27;101985.58;;;0.16;100.00
77454;BME280;66538;53.150;18.160;2023-12-07T08:03:53;101984.77;;;0.22;100.00
77454;BME280;66538;53.150;18.160;2023-12-07T08:06:21;101985.31;;;0.26;100.00
77454;BME280;66538;53.150;18.160;2023-12-07T08:08:47;101990.45;;;0.31;100.00
77454;BME280;66538;53.150;18.160;2023-12-07T08:11:15;101989.40;;;0.36;100.00
77454;BME280;66538;53.150;18.160;2023-12-07T08:13:42;101990.28;;;0.40;100.00
77454;BME280;66538;53.150;18.160;2023-12-07T08:16:08;101988.00;;;0.45;100.00
77454;BME280;66538;53.150;18.160;2023-12-07T08:18:38;101987.05;;;0.48;100.00
77454;BME280;66538;53.150;18.160;2023-12-07T08:21:05;101980.80;;;0.53;100.00
77454;BME280;66538;53.150;18.160;2023-12-07T08:23:34;101979.44;;;0.56;100.00
77454;BME280;66538;53.150;18.160;2023-12-07T08:26:01;101978.51;;;0.59;100.00
77454;BME280;66538;53.150;18.160;2023-12-07T08:28:28;101975.73;;;0.63;100.00
77454;BME280;66538;53.150;18.160;2023-12-07T08:30:55;101981.31;;;0.66;100.00
77454;BME280;66538;53.150;18.160;2023-12-07T08:33:21;101976.77;;;0.69;100.00
77454;BME280;66538;53.150;18.160;2023-12-07T08:35:48;101981.37;;;0.73;100.00
77454;BME280;66538;53.150;18.160;2023-12-07T08:38:20;101984.94;;;0.74;100.00
77454;BME280;66538;53.150;18.160;2023-12-07T08:40:49;101982.40;;;0.76;100.00
77454;BME280;66538;53.150;18.160;2023-12-07T08:43:15;101983.60;;;0.78;99.95
77454;BME280;66538;53.150;18.160;2023-12-07T08:45:42;101991.98;;;0.78;99.89
77454;BME280;66538;53.150;18.160;2023-12-07T08:48:08;101993.54;;;0.79;99.90
77454;BME280;66538;53.150;18.160;2023-12-07T08:50:35;101994.50;;;0.78;99.94
77454;BME280;66538;53.150;18.160;2023-12-07T08:53:01;101996.84;;;0.79;99.92
77454;BME280;66538;53.150;18.160;2023-12-07T08:55:28;101996.85;;;0.79;99.87
77454;BME280;66538;53.150;18.160;2023-12-07T08:57:56;102001.88;;;0.80;99.87
77454;BME280;66538;53.150;18.160;2023-12-07T09:00:23;102005.49;;;0.82;99.88
77454;BME280;66538;53.150;18.160;2023-12-07T09:02:51;102007.49;;;0.83;99.90
77454;BME280;66538;53.150;18.160;2023-12-07T09:05:18;102006.05;;;0.86;99.92
77454;BME280;66538;53.150;18.160;2023-12-07T09:07:45;102010.91;;;0.87;99.74
77454;BME280;66538;53.150;18.160;2023-12-07T09:10:11;102008.73;;;0.89;99.70
77454;BME280;66538;53.150;18.160;2023-12-07T09:12:38;102010.16;;;0.92;99.78
77454;BME280;66538;53.150;18.160;2023-12-07T09:15:05;102011.23;;;0.92;99.73
77454;BME280;66538;53.150;18.160;2023-12-07T09:17:33;102011.34;;;0.95;99.48
77454;BME280;66538;53.150;18.160;2023-12-07T09:20:00;102005.94;;;0.97;99.54
77454;BME280;66538;53.150;18.160;2023-12-07T09:22:27;102009.15;;;0.97;99.31
77454;BME280;66538;53.150;18.160;2023-12-07T09:24:54;102012.96;;;0.99;99.25
77454;BME280;66538;53.150;18.160;2023-12-07T09:27:20;102020.23;;;0.99;99.46
77454;BME280;66538;53.150;18.160;2023-12-07T09:29:47;102021.06;;;1.01;99.71
77454;BME280;66538;53.150;18.160;2023-12-07T09:32:14;102021.42;;;1.02;99.55
77454;BME280;66538;53.150;18.160;2023-12-07T09:34:41;102018.79;;;1.02;99.31
77454;BME280;66538;53.150;18.160;2023-12-07T09:37:10;102017.34;;;1.04;99.14
77454;BME280;66538;53.150;18.160;2023-12-07T09:39:37;102010.63;;;1.03;99.06
77454;BME280;66538;53.150;18.160;2023-12-07T09:42:04;102007.96;;;1.08;99.45
77454;BME280;66538;53.150;18.160;2023-12-07T09:44:30;102008.84;;;1.10;99.40
77454;BME280;66538;53.150;18.160;2023-12-07T09:46:57;102001.33;;;1.10;99.22
77454;BME280;66538;53.150;18.160;2023-12-07T09:49:24;101997.53;;;1.15;99.26
77454;BME280;66538;53.150;18.160;2023-12-07T09:51:52;101995.86;;;1.18;99.42
77454;BME280;66538;53.150;18.160;2023-12-07T09:54:21;101994.66;;;1.22;99.21
77454;BME280;66538;53.150;18.160;2023-12-07T09:56:48;101993.72;;;1.26;99.31
77454;BME280;66538;53.150;18.160;2023-12-07T09:59:15;101991.14;;;1.27;99.15
77454;BME280;66538;53.150;18.160;2023-12-07T10:01:41;101990.41;;;1.28;98.98
77454;BME280;66538;53.150;18.160;2023-12-07T10:04:15;101991.08;;;1.30;98.91
77454;BME280;66538;53.150;18.160;2023-12-07T10:06:43;101993.30;;;1.32;99.24
77454;BME280;66538;53.150;18.160;2023-12-07T10:09:16;101990.77;;;1.34;98.87
77454;BME280;66538;53.150;18.160;2023-12-07T10:11:45;101987.42;;;1.35;99.00
77454;BME280;66538;53.150;18.160;2023-12-07T10:14:13;101987.80;;;1.38;99.06
77454;BME280;66538;53.150;18.160;2023-12-07T10:16:53;101986.80;;;1.42;98.95
77454;BME280;66538;53.150;18.160;2023-12-07T10:19:22;101988.63;;;1.45;98.64
77454;BME280;66538;53.150;18.160;2023-12-07T10:21:49;101989.80;;;1.45;98.53
77454;BME280;66538;53.150;18.160;2023-12-07T10:24:20;101991.52;;;1.47;98.69
77454;BME280;66538;53.150;18.160;2023-12-07T10:26:48;101993.58;;;1.50;98.50
77454;BME280;66538;53.150;18.160;2023-12-07T10:29:18;101997.70;;;1.51;98.79
77454;BME280;66538;53.150;18.160;2023-12-07T10:31:46;101989.77;;;1.53;98.86
77454;BME280;66538;53.150;18.160;2023-12-07T10:34:18;101990.02;;;1.55;98.44
77454;BME280;66538;53.150;18.160;2023-12-07T10:36:48;101990.10;;;1.58;98.44
77454;BME280;66538;53.150;18.160;2023-12-07T10:39:15;101990.58;;;1.60;98.57
77454;BME280;66538;53.150;18.160;2023-12-07T10:41:43;101992.45;;;1.60;98.48
77454;BME280;66538;53.150;18.160;2023-12-07T10:44:13;101985.40;;;1.60;98.34
77454;BME280;66538;53.150;18.160;2023-12-07T10:46:42;101983.52;;;1.61;98.38
77454;BME280;66538;53.150;18.160;2023-12-07T10:49:15;101985.09;;;1.63;98.04
77454;BME280;66538;53.150;18.160;2023-12-07T10:51:54;101982.24;;;1.64;98.19
77454;BME280;66538;53.150;18.160;2023-12-07T10:54:27;101987.48;;;1.63;98.31
77454;BME280;66538;53.150;18.160;2023-12-07T10:56:57;101987.91;;;1.64;97.71
77454;BME280;66538;53.150;18.160;2023-12-07T10:59:29;101982.36;;;1.64;98.10
77454;BME280;66538;53.150;18.160;2023-12-07T11:01:57;101979.27;;;1.65;97.63
77454;BME280;66538;53.150;18.160;2023-12-07T11:04:24;101976.50;;;1.64;97.74
77454;BME280;66538;53.150;18.160;2023-12-07T11:06:53;101980.35;;;1.68;97.84
77454;BME280;66538;53.150;18.160;2023-12-07T11:09:28;101975.65;;;1.70;97.80
77454;BME280;66538;53.150;18.160;2023-12-07T11:12:01;101972.02;;;1.60;98.10
77454;BME280;66538;53.150;18.160;2023-12-07T11:14:29;101971.77;;;1.59;98.10
77454;BME280;66538;53.150;18.160;2023-12-07T11:16:56;101972.93;;;1.63;98.04
77454;BME280;66538;53.150;18.160;2023-12-07T11:22:07;101964.09;;;1.68;97.86
77454;BME280;66538;53.150;18.160;2023-12-07T11:24:37;101968.30;;;1.79;97.73
77454;BME280;66538;53.150;18.160;2023-12-07T11:27:04;101964.60;;;1.86;97.80
77454;BME280;66538;53.150;18.160;2023-12-07T11:29:31;101965.16;;;1.96;97.68
77454;BME280;66538;53.150;18.160;2023-12-07T11:32:02;101964.47;;;1.99;97.28
77454;BME280;66538;53.150;18.160;2023-12-07T11:34:38;101967.22;;;2.01;97.36
77454;BME280;66538;53.150;18.160;2023-12-07T11:37:15;101969.50;;;2.07;97.40
77454;BME280;66538;53.150;18.160;2023-12-07T11:39:45;101963.04;;;2.13;97.30
77454;BME280;66538;53.150;18.160;2023-12-07T11:42:15;101956.19;;;2.15;96.83
77454;BME280;66538;53.150;18.160;2023-12-07T11:44:44;101951.23;;;2.15;96.41
77454;BME280;66538;53.150;18.160;2023-12-07T11:47:16;101950.32;;;2.17;96.71
77454;BME280;66538;53.150;18.160;2023-12-07T11:49:46;101946.13;;;2.17;96.92
77454;BME280;66538;53.150;18.160;2023-12-07T11:54:43;101949.83;;;2.22;96.71
77454;BME280;66538;53.150;18.160;2023-12-07T11:57:10;101951.27;;;2.17;96.96
77454;BME280;66538;53.150;18.160;2023-12-07T11:59:37;101949.94;;;2.21;96.62
77454;BME280;66538;53.150;18.160;2023-12-07T12:02:04;101953.97;;;2.26;96.88
77454;BME280;66538;53.150;18.160;2023-12-07T12:04:31;101947.55;;;2.30;96.95
77454;BME280;66538;53.150;18.160;2023-12-07T12:06:57;101948.91;;;2.31;96.42
77454;BME280;66538;53.150;18.160;2023-12-07T12:09:24;101946.49;;;2.30;96.92
77454;BME280;66538;53.150;18.160;2023-12-07T12:11:51;101945.17;;;2.31;96.68
77454;BME280;66538;53.150;18.160;2023-12-07T12:14:18;101944.65;;;2.29;96.09
77454;BME280;66538;53.150;18.160;2023-12-07T12:16:46;101945.55;;;2.28;96.40
77454;BME280;66538;53.150;18.160;2023-12-07T12:19:13;101940.31;;;2.31;96.57
77454;BME280;66538;53.150;18.160;2023-12-07T12:21:41;101939.66;;;2.29;96.71
77454;BME280;66538;53.150;18.160;2023-12-07T12:24:13;101940.21;;;2.28;96.12
77454;BME280;66538;53.150;18.160;2023-12-07T12:26:41;101940.49;;;2.30;96.39
77454;BME280;66538;53.150;18.160;2023-12-07T12:29:09;101935.24;;;2.26;96.14
77454;BME280;66538;53.150;18.160;2023-12-07T12:31:35;101935.35;;;2.27;96.40
77454;BME280;66538;53.150;18.160;2023-12-07T12:34:02;101940.59;;;2.27;96.56
77454;BME280;66538;53.150;18.160;2023-12-07T12:36:31;101937.70;;;2.26;96.49
77454;BME280;66538;53.150;18.160;2023-12-07T12:38:58;101931.54;;;2.26;96.55
77454;BME280;66538;53.150;18.160;2023-12-07T12:41:25;101932.82;;;2.24;96.26
77454;BME280;66538;53.150;18.160;2023-12-07T12:43:51;101931.91;;;2.21;96.43
77454;BME280;66538;53.150;18.160;2023-12-07T12:46:18;101935.96;;;2.19;96.49